sensor_id;sensor_type;location;lat;lon;timestamp;temperature;humidity
24158;DHT22;12316;50.904;4.200;2023-04-29T00:01:15;12.10;99.90
24158;DHT22;12316;50.904;4.200;2023-04-29T00:03:41;12.10;99.90
24158;DHT22;12316;50.904;4.200;2023-04-29T00:06:07;12.10;99.90
24158;DHT22;12316;50.904;4.200;2023-04-29T00:08:32;12.20;99.90
24158;DHT22;12316;50.904;4.200;2023-04-29T00:10:58;12.10;99.90
24158;DHT22;12316;50.904;4.200;2023-04-29T00:13:23;12.00;99.90
24158;DHT22;12316;50.904;4.200;2023-04-29T00:15:50;12.00;99.90
24158;DHT22;12316;50.904;4.200;2023-04-29T00:18:16;11.90;99.90
24158;DHT22;12316;50.904;4.200;2023-04-29T00:20:41;12.00;99.90
24158;DHT22;12316;50.904;4.200;2023-04-29T00:23:07;11.90;99.90
24158;DHT22;12316;50.904;4.200;2023-04-29T00:25:33;11.90;99.90
24158;DHT22;12316;50.904;4.200;2023-04-29T00:27:59;12.00;99.90
24158;DHT22;12316;50.904;4.200;2023-04-29T00:30:27;12.00;99.90
24158;DHT22;12316;50.904;4.200;2023-04-29T00:32:53;11.90;99.90
24158;DHT22;12316;50.904;4.200;2023-04-29T00:35:20;12.00;99.90
24158;DHT22;12316;50.904;4.200;2023-04-29T00:37:46;11.90;99.90
24158;DHT22;12316;50.904;4.200;2023-04-29T00:40:12;12.00;99.90
24158;DHT22;12316;50.904;4.200;2023-04-29T00:42:42;12.00;99.90
24158;DHT22;12316;50.904;4.200;2023-04-29T00:45:09;12.00;99.90
24158;DHT22;12316;50.904;4.200;2023-04-29T00:47:38;11.90;99.90
24158;DHT22;12316;50.904;4.200;2023-04-29T00:50:07;11.90;99.90
24158;DHT22;12316;50.904;4.200;2023-04-29T00:52:33;11.90;99.90
24158;DHT22;12316;50.904;4.200;2023-04-29T00:54:59;12.00;99.90
24158;DHT22;12316;50.904;4.200;2023-04-29T00:57:25;11.90;99.90
24158;DHT22;12316;50.904;4.200;2023-04-29T00:59:57;11.90;99.90
24158;DHT22;12316;50.904;4.200;2023-04-29T01:02:23;11.90;99.90
24158;DHT22;12316;50.904;4.200;2023-04-29T01:04:50;11.90;99.90
24158;DHT22;12316;50.904;4.200;2023-04-29T01:07:22;12.00;99.90
24158;DHT22;12316;50.904;4.200;2023-04-29T01:15:15;12.10;99.90
24158;DHT22;12316;50.904;4.200;2023-04-29T01:18:11;12.10;99.90
24158;DHT22;12316;50.904;4.200;2023-04-29T01:20:38;12.10;99.90
24158;DHT22;12316;50.904;4.200;2023-04-29T01:23:04;12.20;99.90
24158;DHT22;12316;50.904;4.200;2023-04-29T01:25:30;12.10;99.90
24158;DHT22;12316;50.904;4.200;2023-04-29T01:31:03;12.30;99.90
24158;DHT22;12316;50.904;4.200;2023-04-29T01:38:46;12.00;99.90
24158;DHT22;12316;50.904;4.200;2023-04-29T01:41:13;11.80;99.90
24158;DHT22;12316;50.904;4.200;2023-04-29T01:43:40;11.70;99.90
24158;DHT22;12316;50.904;4.200;2023-04-29T01:46:08;11.70;99.90
24158;DHT22;12316;50.904;4.200;2023-04-29T01:48:36;11.80;99.90
24158;DHT22;12316;50.904;4.200;2023-04-29T01:51:01;11.70;99.90
24158;DHT22;12316;50.904;4.200;2023-04-29T01:53:27;11.70;99.90
24158;DHT22;12316;50.904;4.200;2023-04-29T01:55:53;11.80;99.90
24158;DHT22;12316;50.904;4.200;2023-04-29T01:58:18;11.80;99.90
24158;DHT22;12316;50.904;4.200;2023-04-29T02:00:44;11.70;99.90
24158;DHT22;12316;50.904;4.200;2023-04-29T02:03:10;11.70;99.90
24158;DHT22;12316;50.904;4.200;2023-04-29T02:05:36;11.70;99.90
24158;DHT22;12316;50.904;4.200;2023-04-29T02:08:02;11.70;99.90
24158;DHT22;12316;50.904;4.200;2023-04-29T02:10:27;11.70;99.90
24158;DHT22;12316;50.904;4.200;2023-04-29T02:12:53;11.60;99.90
24158;DHT22;12316;50.904;4.200;2023-04-29T02:15:19;11.60;99.90
24158;DHT22;12316;50.904;4.200;2023-04-29T02:17:45;11.60;99.90
24158;DHT22;12316;50.904;4.200;2023-04-29T02:20:11;11.50;99.90
24158;DHT22;12316;50.904;4.200;2023-04-29T02:22:37;11.50;99.90
24158;DHT22;12316;50.904;4.200;2023-04-29T02:25:03;11.60;99.90
24158;DHT22;12316;50.904;4.200;2023-04-29T02:27:29;11.50;99.90
24158;DHT22;12316;50.904;4.200;2023-04-29T02:29:55;11.50;99.90
24158;DHT22;12316;50.904;4.200;2023-04-29T02:32:20;11.60;99.90
24158;DHT22;12316;50.904;4.200;2023-04-29T02:34:46;11.50;99.90
24158;DHT22;12316;50.904;4.200;2023-04-29T02:37:12;11.50;99.90
24158;DHT22;12316;50.904;4.200;2023-04-29T02:39:37;11.40;99.90
24158;DHT22;12316;50.904;4.200;2023-04-29T02:42:03;11.30;99.90
24158;DHT22;12316;50.904;4.200;2023-04-29T02:44:28;11.40;99.90
24158;DHT22;12316;50.904;4.200;2023-04-29T02:46:55;11.40;99.90
24158;DHT22;12316;50.904;4.200;2023-04-29T02:49:22;11.50;99.90
24158;DHT22;12316;50.904;4.200;2023-04-29T02:51:48;11.40;99.90
24158;DHT22;12316;50.904;4.200;2023-04-29T02:54:16;11.40;99.90
24158;DHT22;12316;50.904;4.200;2023-04-29T02:56:42;11.40;99.90
24158;DHT22;12316;50.904;4.200;2023-04-29T02:59:08;11.40;99.90
24158;DHT22;12316;50.904;4.200;2023-04-29T03:01:34;11.40;99.90
24158;DHT22;12316;50.904;4.200;2023-04-29T03:04:00;11.30;99.90
24158;DHT22;12316;50.904;4.200;2023-04-29T03:06:25;11.30;99.90
24158;DHT22;12316;50.904;4.200;2023-04-29T03:08:52;11.30;99.90
24158;DHT22;12316;50.904;4.200;2023-04-29T03:11:18;11.40;99.90
24158;DHT22;12316;50.904;4.200;2023-04-29T03:13:44;11.40;99.90
24158;DHT22;12316;50.904;4.200;2023-04-29T03:16:10;11.40;99.90
24158;DHT22;12316;50.904;4.200;2023-04-29T03:18:38;11.40;99.90
24158;DHT22;12316;50.904;4.200;2023-04-29T03:21:05;11.30;99.90
24158;DHT22;12316;50.904;4.200;2023-04-29T03:23:30;11.30;99.90
24158;DHT22;12316;50.904;4.200;2023-04-29T03:25:56;11.40;99.90
24158;DHT22;12316;50.904;4.200;2023-04-29T03:28:22;11.40;99.90
24158;DHT22;12316;50.904;4.200;2023-04-29T03:30:48;11.40;99.90
24158;DHT22;12316;50.904;4.200;2023-04-29T03:33:14;11.50;99.90
24158;DHT22;12316;50.904;4.200;2023-04-29T03:35:39;11.30;99.90
24158;DHT22;12316;50.904;4.200;2023-04-29T03:38:05;11.30;99.90
24158;DHT22;12316;50.904;4.200;2023-04-29T03:40:31;11.40;99.90
24158;DHT22;12316;50.904;4.200;2023-04-29T03:42:56;11.50;99.90
24158;DHT22;12316;50.904;4.200;2023-04-29T03:45:22;11.50;99.90
24158;DHT22;12316;50.904;4.200;2023-04-29T03:47:48;11.50;99.90
24158;DHT22;12316;50.904;4.200;2023-04-29T03:50:13;11.50;99.90
24158;DHT22;12316;50.904;4.200;2023-04-29T03:52:39;11.50;99.90
24158;DHT22;12316;50.904;4.200;2023-04-29T03:55:05;11.60;99.90
24158;DHT22;12316;50.904;4.200;2023-04-29T03:57:31;11.60;99.90
24158;DHT22;12316;50.904;4.200;2023-04-29T03:59:57;11.50;99.90
24158;DHT22;12316;50.904;4.200;2023-04-29T04:02:22;11.50;99.90
24158;DHT22;12316;50.904;4.200;2023-04-29T04:04:48;11.50;99.90
24158;DHT22;12316;50.904;4.200;2023-04-29T04:07:14;11.50;99.90
24158;DHT22;12316;50.904;4.200;2023-04-29T04:09:39;11.40;99.90
24158;DHT22;12316;50.904;4.200;2023-04-29T04:12:05;11.50;99.90
24158;DHT22;12316;50.904;4.200;2023-04-29T04:14:31;11.50;99.90
24158;DHT22;12316;50.904;4.200;2023-04-29T04:16:56;11.50;99.90
24158;DHT22;12316;50.904;4.200;2023-04-29T04:19:22;11.50;99.90
24158;DHT22;12316;50.904;4.200;2023-04-29T04:21:48;11.50;99.90
24158;DHT22;12316;50.904;4.200;2023-04-29T04:24:13;11.50;99.90
24158;DHT22;12316;50.904;4.200;2023-04-29T04:26:39;11.50;99.90
24158;DHT22;12316;50.904;4.200;2023-04-29T04:29:06;11.50;99.90
24158;DHT22;12316;50.904;4.200;2023-04-29T04:31:32;11.40;99.90
24158;DHT22;12316;50.904;4.200;2023-04-29T04:33:57;11.40;99.90
24158;DHT22;12316;50.904;4.200;2023-04-29T04:36:24;11.30;99.90
24158;DHT22;12316;50.904;4.200;2023-04-29T04:38:50;11.30;99.90
24158;DHT22;12316;50.904;4.200;2023-04-29T04:41:16;11.20;99.90
24158;DHT22;12316;50.904;4.200;2023-04-29T04:43:42;11.10;99.90
24158;DHT22;12316;50.904;4.200;2023-04-29T04:46:12;11.00;99.90
24158;DHT22;12316;50.904;4.200;2023-04-29T04:48:38;11.00;99.90
24158;DHT22;12316;50.904;4.200;2023-04-29T04:51:09;11.20;99.90
24158;DHT22;12316;50.904;4.200;2023-04-29T04:53:35;11.10;99.90
24158;DHT22;12316;50.904;4.200;2023-04-29T04:56:02;11.10;99.90
24158;DHT22;12316;50.904;4.200;2023-04-29T04:58:27;11.10;99.90
24158;DHT22;12316;50.904;4.200;2023-04-29T05:00:55;11.10;99.90
24158;DHT22;12316;50.904;4.200;2023-04-29T05:03:21;11.10;99.90
24158;DHT22;12316;50.904;4.200;2023-04-29T05:05:58;11.20;99.90
24158;DHT22;12316;50.904;4.200;2023-04-29T05:08:25;11.20;99.90
24158;DHT22;12316;50.904;4.200;2023-04-29T05:10:50;11.20;99.90
24158;DHT22;12316;50.904;4.200;2023-04-29T05:13:16;11.20;99.90
24158;DHT22;12316;50.904;4.200;2023-04-29T05:15:42;11.00;99.90
24158;DHT22;12316;50.904;4.200;2023-04-29T05:18:09;11.00;99.90
24158;DHT22;12316;50.904;4.200;2023-04-29T05:20:35;11.10;99.90
24158;DHT22;12316;50.904;4.200;2023-04-29T05:23:01;11.20;99.90
24158;DHT22;12316;50.904;4.200;2023-04-29T05:25:27;11.20;99.90
24158;DHT22;12316;50.904;4.200;2023-04-29T05:27:53;11.20;99.90
24158;DHT22;12316;50.904;4.200;2023-04-29T05:30:19;11.20;99.90
24158;DHT22;12316;50.904;4.200;2023-04-29T05:32:44;11.30;99.90
24158;DHT22;12316;50.904;4.200;2023-04-29T05:35:11;11.30;99.90
24158;DHT22;12316;50.904;4.200;2023-04-29T05:37:36;11.30;99.90
24158;DHT22;12316;50.904;4.200;2023-04-29T05:40:03;11.30;99.90
24158;DHT22;12316;50.904;4.200;2023-04-29T05:42:29;11.10;99.90
24158;DHT22;12316;50.904;4.200;2023-04-29T05:44:54;11.10;99.90
24158;DHT22;12316;50.904;4.200;2023-04-29T05:47:20;11.00;99.90
24158;DHT22;12316;50.904;4.200;2023-04-29T05:49:47;11.00;99.90
24158;DHT22;12316;50.904;4.200;2023-04-29T05:52:12;10.90;99.90
24158;DHT22;12316;50.904;4.200;2023-04-29T05:54:38;11.00;99.90
24158;DHT22;12316;50.904;4.200;2023-04-29T05:57:04;11.00;99.90
24158;DHT22;12316;50.904;4.200;2023-04-29T05:59:30;10.90;99.90
24158;DHT22;12316;50.904;4.200;2023-04-29T06:01:57;10.90;99.90
24158;DHT22;12316;50.904;4.200;2023-04-29T06:04:23;10.90;99.90
24158;DHT22;12316;50.904;4.200;2023-04-29T06:06:50;11.00;99.90
24158;DHT22;12316;50.904;4.200;2023-04-29T06:09:16;10.90;99.90
24158;DHT22;12316;50.904;4.200;2023-04-29T06:11:42;10.90;99.90
24158;DHT22;12316;50.904;4.200;2023-04-29T06:14:09;11.00;99.90
24158;DHT22;12316;50.904;4.200;2023-04-29T06:16:35;11.00;99.90
24158;DHT22;12316;50.904;4.200;2023-04-29T06:19:01;11.00;99.90
24158;DHT22;12316;50.904;4.200;2023-04-29T06:21:27;11.00;99.90
24158;DHT22;12316;50.904;4.200;2023-04-29T06:23:53;11.00;99.90
24158;DHT22;12316;50.904;4.200;2023-04-29T06:26:19;10.90;99.90
24158;DHT22;12316;50.904;4.200;2023-04-29T06:28:48;11.00;99.90
24158;DHT22;12316;50.904;4.200;2023-04-29T06:31:14;11.20;99.90
24158;DHT22;12316;50.904;4.200;2023-04-29T06:33:40;11.10;99.90
24158;DHT22;12316;50.904;4.200;2023-04-29T06:36:06;11.10;99.90
24158;DHT22;12316;50.904;4.200;2023-04-29T06:38:32;11.00;99.90
24158;DHT22;12316;50.904;4.200;2023-04-29T06:40:58;11.10;99.90
24158;DHT22;12316;50.904;4.200;2023-04-29T06:43:28;11.20;99.90
24158;DHT22;12316;50.904;4.200;2023-04-29T06:45:54;11.10;99.90
24158;DHT22;12316;50.904;4.200;2023-04-29T06:48:20;11.10;99.90
24158;DHT22;12316;50.904;4.200;2023-04-29T06:50:50;11.10;99.90
24158;DHT22;12316;50.904;4.200;2023-04-29T06:53:16;11.20;99.90
24158;DHT22;12316;50.904;4.200;2023-04-29T06:55:42;11.20;99.90
24158;DHT22;12316;50.904;4.200;2023-04-29T06:58:07;11.30;99.90
24158;DHT22;12316;50.904;4.200;2023-04-29T07:00:33;11.40;99.90
24158;DHT22;12316;50.904;4.200;2023-04-29T07:02:59;11.50;99.90
24158;DHT22;12316;50.904;4.200;2023-04-29T07:05:24;11.50;99.90
24158;DHT22;12316;50.904;4.200;2023-04-29T07:07:50;11.60;99.90
24158;DHT22;12316;50.904;4.200;2023-04-29T07:10:16;11.70;99.90
24158;DHT22;12316;50.904;4.200;2023-04-29T07:12:42;11.80;99.90
24158;DHT22;12316;50.904;4.200;2023-04-29T07:15:07;12.00;99.90
24158;DHT22;12316;50.904;4.200;2023-04-29T07:17:33;12.00;99.90
24158;DHT22;12316;50.904;4.200;2023-04-29T07:19:59;11.90;99.90
24158;DHT22;12316;50.904;4.200;2023-04-29T07:22:25;11.80;99.90
24158;DHT22;12316;50.904;4.200;2023-04-29T07:24:53;11.90;99.90
24158;DHT22;12316;50.904;4.200;2023-04-29T07:27:20;12.00;99.90
24158;DHT22;12316;50.904;4.200;2023-04-29T07:29:45;11.90;99.90
24158;DHT22;12316;50.904;4.200;2023-04-29T07:32:11;11.80;99.90
24158;DHT22;12316;50.904;4.200;2023-04-29T07:34:37;11.80;99.90
24158;DHT22;12316;50.904;4.200;2023-04-29T07:37:02;12.00;99.90
24158;DHT22;12316;50.904;4.200;2023-04-29T07:39:28;12.00;99.90
24158;DHT22;12316;50.904;4.200;2023-04-29T07:41:54;12.00;99.90
24158;DHT22;12316;50.904;4.200;2023-04-29T07:44:20;11.90;99.90
24158;DHT22;12316;50.904;4.200;2023-04-29T07:46:47;11.70;99.90
24158;DHT22;12316;50.904;4.200;2023-04-29T07:49:13;11.80;99.90
24158;DHT22;12316;50.904;4.200;2023-04-29T07:51:41;12.00;99.90
24158;DHT22;12316;50.904;4.200;2023-04-29T07:54:08;12.10;99.90
24158;DHT22;12316;50.904;4.200;2023-04-29T07:56:34;12.30;99.90
24158;DHT22;12316;50.904;4.200;2023-04-29T07:59:00;12.30;99.90
24158;DHT22;12316;50.904;4.200;2023-04-29T08:01:26;12.30;99.90
24158;DHT22;12316;50.904;4.200;2023-04-29T08:03:53;12.30;99.90
24158;DHT22;12316;50.904;4.200;2023-04-29T08:06:19;12.50;99.90
24158;DHT22;12316;50.904;4.200;2023-04-29T08:08:47;12.50;99.90
24158;DHT22;12316;50.904;4.200;2023-04-29T08:11:17;12.60;99.90
24158;DHT22;12316;50.904;4.200;2023-04-29T08:13:43;12.70;99.90
24158;DHT22;12316;50.904;4.200;2023-04-29T08:16:09;12.80;99.90
24158;DHT22;12316;50.904;4.200;2023-04-29T08:18:34;12.90;99.90
24158;DHT22;12316;50.904;4.200;2023-04-29T08:21:01;13.10;99.90
24158;DHT22;12316;50.904;4.200;2023-04-29T08:23:27;13.20;99.90
24158;DHT22;12316;50.904;4.200;2023-04-29T08:25:53;13.30;99.90
24158;DHT22;12316;50.904;4.200;2023-04-29T08:28:20;13.40;99.90
24158;DHT22;12316;50.904;4.200;2023-04-29T08:30:46;13.70;99.90
24158;DHT22;12316;50.904;4.200;2023-04-29T08:33:12;13.80;99.90
24158;DHT22;12316;50.904;4.200;2023-04-29T08:35:40;13.90;99.90
24158;DHT22;12316;50.904;4.200;2023-04-29T08:38:07;14.00;99.90
24158;DHT22;12316;50.904;4.200;2023-04-29T08:40:42;14.10;99.90
24158;DHT22;12316;50.904;4.200;2023-04-29T08:43:09;14.10;99.90
24158;DHT22;12316;50.904;4.200;2023-04-29T08:45:35;14.20;99.90
24158;DHT22;12316;50.904;4.200;2023-04-29T08:48:06;14.30;99.90
24158;DHT22;12316;50.904;4.200;2023-04-29T08:50:38;14.40;99.90
24158;DHT22;12316;50.904;4.200;2023-04-29T08:53:09;14.40;99.90
24158;DHT22;12316;50.904;4.200;2023-04-29T08:55:45;14.40;99.90
24158;DHT22;12316;50.904;4.200;2023-04-29T08:58:12;14.60;99.90
24158;DHT22;12316;50.904;4.200;2023-04-29T09:00:39;14.80;99.90
24158;DHT22;12316;50.904;4.200;2023-04-29T09:03:29;15.00;99.90
24158;DHT22;12316;50.904;4.200;2023-04-29T09:05:58;14.90;99.90
24158;DHT22;12316;50.904;4.200;2023-04-29T09:08:25;15.00;99.90
24158;DHT22;12316;50.904;4.200;2023-04-29T09:10:51;15.30;99.90
24158;DHT22;12316;50.904;4.200;2023-04-29T09:13:28;15.50;99.90
24158;DHT22;12316;50.904;4.200;2023-04-29T09:15:54;15.20;99.90
24158;DHT22;12316;50.904;4.200;2023-04-29T09:18:46;15.00;99.90
24158;DHT22;12316;50.904;4.200;2023-04-29T09:23:38;15.20;99.90
24158;DHT22;12316;50.904;4.200;2023-04-29T09:26:04;15.20;99.90
24158;DHT22;12316;50.904;4.200;2023-04-29T09:28:29;15.40;99.90
24158;DHT22;12316;50.904;4.200;2023-04-29T09:30:55;15.70;99.90
24158;DHT22;12316;50.904;4.200;2023-04-29T09:33:21;15.40;99.90
24158;DHT22;12316;50.904;4.200;2023-04-29T09:35:46;15.40;99.90
24158;DHT22;12316;50.904;4.200;2023-04-29T09:38:14;15.50;99.90
24158;DHT22;12316;50.904;4.200;2023-04-29T09:40:42;15.40;99.90
24158;DHT22;12316;50.904;4.200;2023-04-29T09:43:15;15.30;99.90
24158;DHT22;12316;50.904;4.200;2023-04-29T09:45:43;15.40;99.90
24158;DHT22;12316;50.904;4.200;2023-04-29T09:48:10;15.40;99.90
24158;DHT22;12316;50.904;4.200;2023-04-29T09:50:37;15.50;99.90
24158;DHT22;12316;50.904;4.200;2023-04-29T09:53:04;15.60;99.90
24158;DHT22;12316;50.904;4.200;2023-04-29T09:55:31;15.80;99.90
24158;DHT22;12316;50.904;4.200;2023-04-29T09:57:57;15.90;99.90
24158;DHT22;12316;50.904;4.200;2023-04-29T10:00:23;15.80;99.90
24158;DHT22;12316;50.904;4.200;2023-04-29T10:02:50;15.70;99.90
24158;DHT22;12316;50.904;4.200;2023-04-29T10:05:18;15.60;99.90
24158;DHT22;12316;50.904;4.200;2023-04-29T10:07:46;15.60;99.90
24158;DHT22;12316;50.904;4.200;2023-04-29T10:10:16;15.70;99.90
24158;DHT22;12316;50.904;4.200;2023-04-29T10:12:43;15.80;99.90
24158;DHT22;12316;50.904;4.200;2023-04-29T10:15:22;15.90;99.90
24158;DHT22;12316;50.904;4.200;2023-04-29T10:18:10;16.10;99.90
24158;DHT22;12316;50.904;4.200;2023-04-29T10:20:40;16.30;99.90
24158;DHT22;12316;50.904;4.200;2023-04-29T10:23:10;16.70;99.90
24158;DHT22;12316;50.904;4.200;2023-04-29T10:25:37;16.90;99.90
24158;DHT22;12316;50.904;4.200;2023-04-29T10:28:04;17.40;99.90
24158;DHT22;12316;50.904;4.200;2023-04-29T10:30:31;17.50;99.90
24158;DHT22;12316;50.904;4.200;2023-04-29T10:32:58;17.40;99.90
24158;DHT22;12316;50.904;4.200;2023-04-29T10:35:24;17.40;99.90
24158;DHT22;12316;50.904;4.200;2023-04-29T10:37:50;17.40;99.90
24158;DHT22;12316;50.904;4.200;2023-04-29T10:42:53;17.10;99.90
24158;DHT22;12316;50.904;4.200;2023-04-29T10:45:23;17.10;99.90
24158;DHT22;12316;50.904;4.200;2023-04-29T10:53:16;16.90;99.90
24158;DHT22;12316;50.904;4.200;2023-04-29T10:55:47;17.10;99.90
24158;DHT22;12316;50.904;4.200;2023-04-29T10:58:35;17.20;99.90
24158;DHT22;12316;50.904;4.200;2023-04-29T11:01:02;17.20;99.90
24158;DHT22;12316;50.904;4.200;2023-04-29T11:03:55;17.40;99.90
24158;DHT22;12316;50.904;4.200;2023-04-29T11:06:36;17.30;99.90
24158;DHT22;12316;50.904;4.200;2023-04-29T11:14:21;17.30;99.90
24158;DHT22;12316;50.904;4.200;2023-04-29T11:16:49;17.60;99.90
24158;DHT22;12316;50.904;4.200;2023-04-29T11:19:16;17.70;99.90
24158;DHT22;12316;50.904;4.200;2023-04-29T11:21:44;17.70;99.90
24158;DHT22;12316;50.904;4.200;2023-04-29T11:24:10;17.70;99.90
24158;DHT22;12316;50.904;4.200;2023-04-29T11:26:37;17.80;99.90
24158;DHT22;12316;50.904;4.200;2023-04-29T11:29:04;18.10;99.90
24158;DHT22;12316;50.904;4.200;2023-04-29T11:31:30;18.40;99.90
24158;DHT22;12316;50.904;4.200;2023-04-29T11:33:57;18.50;99.90
24158;DHT22;12316;50.904;4.200;2023-04-29T11:36:23;18.40;99.90
24158;DHT22;12316;50.904;4.200;2023-04-29T11:38:50;18.50;99.90
24158;DHT22;12316;50.904;4.200;2023-04-29T11:41:15;18.20;99.90
24158;DHT22;12316;50.904;4.200;2023-04-29T11:43:45;18.10;99.90
24158;DHT22;12316;50.904;4.200;2023-04-29T11:46:14;18.20;99.90
24158;DHT22;12316;50.904;4.200;2023-04-29T11:48:47;18.10;99.90
24158;DHT22;12316;50.904;4.200;2023-04-29T11:51:14;18.10;99.90
24158;DHT22;12316;50.904;4.200;2023-04-29T11:53:40;18.10;99.90
24158;DHT22;12316;50.904;4.200;2023-04-29T11:56:11;17.90;99.90
24158;DHT22;12316;50.904;4.200;2023-04-29T11:58:37;17.80;99.90
24158;DHT22;12316;50.904;4.200;2023-04-29T12:01:03;18.20;99.90
24158;DHT22;12316;50.904;4.200;2023-04-29T12:03:31;18.40;99.90
24158;DHT22;12316;50.904;4.200;2023-04-29T12:05:57;18.20;99.90
24158;DHT22;12316;50.904;4.200;2023-04-29T12:08:24;18.10;99.90
24158;DHT22;12316;50.904;4.200;2023-04-29T12:10:51;17.90;99.90
24158;DHT22;12316;50.904;4.200;2023-04-29T12:13:18;17.60;99.90
24158;DHT22;12316;50.904;4.200;2023-04-29T12:15:47;17.40;99.90
24158;DHT22;12316;50.904;4.200;2023-04-29T12:18:14;17.50;99.90
24158;DHT22;12316;50.904;4.200;2023-04-29T12:20:40;17.60;99.90
24158;DHT22;12316;50.904;4.200;2023-04-29T12:23:21;17.70;99.90
24158;DHT22;12316;50.904;4.200;2023-04-29T12:25:58;17.90;99.90
24158;DHT22;12316;50.904;4.200;2023-04-29T12:28:25;17.90;99.90
24158;DHT22;12316;50.904;4.200;2023-04-29T12:30:53;18.10;99.90
24158;DHT22;12316;50.904;4.200;2023-04-29T12:33:26;18.30;99.90
24158;DHT22;12316;50.904;4.200;2023-04-29T12:35:53;18.40;99.90
24158;DHT22;12316;50.904;4.200;2023-04-29T12:38:21;18.30;99.90
24158;DHT22;12316;50.904;4.200;2023-04-29T12:40:47;18.30;99.90
24158;DHT22;12316;50.904;4.200;2023-04-29T12:43:13;18.50;99.90
24158;DHT22;12316;50.904;4.200;2023-04-29T12:45:39;18.60;99.90
24158;DHT22;12316;50.904;4.200;2023-04-29T12:48:05;18.50;99.90
24158;DHT22;12316;50.904;4.200;2023-04-29T12:50:34;18.60;99.90
24158;DHT22;12316;50.904;4.200;2023-04-29T12:53:02;18.90;99.90
24158;DHT22;12316;50.904;4.200;2023-04-29T12:55:32;19.10;99.90
24158;DHT22;12316;50.904;4.200;2023-04-29T12:57:59;19.10;99.90
24158;DHT22;12316;50.904;4.200;2023-04-29T13:00:25;19.00;99.90
24158;DHT22;12316;50.904;4.200;2023-04-29T13:02:50;18.80;99.90
24158;DHT22;12316;50.904;4.200;2023-04-29T13:05:16;19.10;99.90
24158;DHT22;12316;50.904;4.200;2023-04-29T13:07:43;19.30;99.90
24158;DHT22;12316;50.904;4.200;2023-04-29T13:10:09;19.00;99.90
24158;DHT22;12316;50.904;4.200;2023-04-29T13:12:37;19.20;99.90
24158;DHT22;12316;50.904;4.200;2023-04-29T13:15:04;19.30;99.90
24158;DHT22;12316;50.904;4.200;2023-04-29T13:17:30;19.30;99.90
24158;DHT22;12316;50.904;4.200;2023-04-29T13:19:56;19.20;99.90
24158;DHT22;12316;50.904;4.200;2023-04-29T13:22:22;19.00;99.90
24158;DHT22;12316;50.904;4.200;2023-04-29T13:24:48;18.70;99.90
24158;DHT22;12316;50.904;4.200;2023-04-29T13:27:13;18.70;99.90
24158;DHT22;12316;50.904;4.200;2023-04-29T13:29:39;18.90;99.90
24158;DHT22;12316;50.904;4.200;2023-04-29T13:32:05;19.10;99.90
24158;DHT22;12316;50.904;4.200;2023-04-29T13:34:31;19.30;99.90
24158;DHT22;12316;50.904;4.200;2023-04-29T13:36:56;19.20;99.90
24158;DHT22;12316;50.904;4.200;2023-04-29T13:39:22;19.40;99.90
24158;DHT22;12316;50.904;4.200;2023-04-29T13:41:48;19.50;99.90
24158;DHT22;12316;50.904;4.200;2023-04-29T13:44:13;19.60;99.90
24158;DHT22;12316;50.904;4.200;2023-04-29T13:46:39;19.60;99.90
24158;DHT22;12316;50.904;4.200;2023-04-29T13:49:05;19.60;99.90
24158;DHT22;12316;50.904;4.200;2023-04-29T13:51:31;19.80;99.90
24158;DHT22;12316;50.904;4.200;2023-04-29T13:53:57;19.80;99.90
24158;DHT22;12316;50.904;4.200;2023-04-29T13:56:23;19.60;99.80
24158;DHT22;12316;50.904;4.200;2023-04-29T13:58:50;19.30;99.90
24158;DHT22;12316;50.904;4.200;2023-04-29T14:01:16;19.10;99.90
24158;DHT22;12316;50.904;4.200;2023-04-29T14:03:42;19.10;99.90
24158;DHT22;12316;50.904;4.200;2023-04-29T14:06:08;19.20;99.90
24158;DHT22;12316;50.904;4.200;2023-04-29T14:08:34;19.20;99.90
24158;DHT22;12316;50.904;4.200;2023-04-29T14:11:00;19.40;99.90
24158;DHT22;12316;50.904;4.200;2023-04-29T14:13:26;19.40;99.60
24158;DHT22;12316;50.904;4.200;2023-04-29T14:15:52;19.60;99.90
24158;DHT22;12316;50.904;4.200;2023-04-29T14:18:19;19.70;99.90
24158;DHT22;12316;50.904;4.200;2023-04-29T14:20:44;19.70;99.80
24158;DHT22;12316;50.904;4.200;2023-04-29T14:23:10;19.60;99.90
24158;DHT22;12316;50.904;4.200;2023-04-29T14:25:37;19.40;99.70
24158;DHT22;12316;50.904;4.200;2023-04-29T14:28:02;19.40;99.90
24158;DHT22;12316;50.904;4.200;2023-04-29T14:30:29;19.20;99.60
24158;DHT22;12316;50.904;4.200;2023-04-29T14:32:54;18.90;99.90
24158;DHT22;12316;50.904;4.200;2023-04-29T14:35:20;18.90;99.90
24158;DHT22;12316;50.904;4.200;2023-04-29T14:37:46;18.90;99.90
24158;DHT22;12316;50.904;4.200;2023-04-29T14:40:11;18.70;99.90
24158;DHT22;12316;50.904;4.200;2023-04-29T14:42:37;18.50;99.90
24158;DHT22;12316;50.904;4.200;2023-04-29T14:45:03;18.50;99.90
24158;DHT22;12316;50.904;4.200;2023-04-29T14:47:29;18.40;99.90
24158;DHT22;12316;50.904;4.200;2023-04-29T14:49:54;18.30;99.90
24158;DHT22;12316;50.904;4.200;2023-04-29T14:52:20;18.20;99.90
24158;DHT22;12316;50.904;4.200;2023-04-29T14:54:46;18.20;99.90
24158;DHT22;12316;50.904;4.200;2023-04-29T14:57:12;18.30;99.90
24158;DHT22;12316;50.904;4.200;2023-04-29T14:59:38;18.40;99.90
24158;DHT22;12316;50.904;4.200;2023-04-29T15:02:03;18.50;99.90
24158;DHT22;12316;50.904;4.200;2023-04-29T15:04:29;18.70;99.90
24158;DHT22;12316;50.904;4.200;2023-04-29T15:06:56;18.90;99.90
24158;DHT22;12316;50.904;4.200;2023-04-29T15:09:22;19.10;99.90
24158;DHT22;12316;50.904;4.200;2023-04-29T15:11:49;19.20;99.90
24158;DHT22;12316;50.904;4.200;2023-04-29T15:14:15;19.20;99.90
24158;DHT22;12316;50.904;4.200;2023-04-29T15:16:40;19.30;99.90
24158;DHT22;12316;50.904;4.200;2023-04-29T15:19:06;19.40;99.90
24158;DHT22;12316;50.904;4.200;2023-04-29T15:21:32;19.10;99.50
24158;DHT22;12316;50.904;4.200;2023-04-29T15:23:57;19.00;99.50
24158;DHT22;12316;50.904;4.200;2023-04-29T15:26:23;18.90;99.60
24158;DHT22;12316;50.904;4.200;2023-04-29T15:28:49;18.90;99.80
24158;DHT22;12316;50.904;4.200;2023-04-29T15:31:14;18.80;99.90
24158;DHT22;12316;50.904;4.200;2023-04-29T15:33:40;18.70;99.90
24158;DHT22;12316;50.904;4.200;2023-04-29T15:36:06;18.80;99.90
24158;DHT22;12316;50.904;4.200;2023-04-29T15:38:32;18.90;99.90
24158;DHT22;12316;50.904;4.200;2023-04-29T15:40:57;18.90;99.90
24158;DHT22;12316;50.904;4.200;2023-04-29T15:43:29;19.00;99.90
24158;DHT22;12316;50.904;4.200;2023-04-29T15:45:57;19.10;99.70
24158;DHT22;12316;50.904;4.200;2023-04-29T15:48:23;19.30;99.60
24158;DHT22;12316;50.904;4.200;2023-04-29T15:50:49;19.30;99.80
24158;DHT22;12316;50.904;4.200;2023-04-29T15:53:15;19.10;99.70
24158;DHT22;12316;50.904;4.200;2023-04-29T15:55:41;19.20;99.80
24158;DHT22;12316;50.904;4.200;2023-04-29T15:58:07;19.40;99.70